This is the latest recevied weather packets stored in our database for station/object N4XHQ-13. If no packets are shown the sender has not sent any weather packets the latest 10 day(s).
| Time | Temp. | Humidity | Pressure | Rain* | Wind** | Luminosity | Snow |
|---|---|---|---|---|---|---|---|
| 1787780948 | 29.44° C | 70% | 1015.2 hPa | 0 mm | - | 69 W/m² | - |
| 1787780643 | 29.44° C | 70% | 1015.2 hPa | 0 mm | - | 92 W/m² | - |
| 1787780338 | 29.44° C | 70% | 1015 hPa | 0 mm | - | 127 W/m² | - |
| 1787780034 | 30° C | 70% | 1014.9 hPa | 0 mm | - | 157 W/m² | - |
| 1787779729 | 30° C | 68% | 1015 hPa | 0 mm | - | 168 W/m² | - |
| 1787779429 | 30° C | 69% | 1015.1 hPa | 0 mm | - | 172 W/m² | - |
| 1787779123 | 30° C | 68% | 1015 hPa | 0 mm | - | 200 W/m² | - |
| 1787778818 | 30° C | 69% | 1015.1 hPa | 0 mm | - | 241 W/m² | - |
| 1787778514 | 30° C | 70% | 1015.2 hPa | 0 mm | - | 182 W/m² | - |
| 1787778210 | 30° C | 70% | 1015.3 hPa | 0 mm | - | 211 W/m² | - |
| 1787777904 | 30.56° C | 70% | 1015.1 hPa | 0 mm | - | 248 W/m² | - |
| 1787777600 | 30.56° C | 67% | 1014.6 hPa | 0 mm | - | 244 W/m² | - |
| 1787777295 | 31.11° C | 63% | 1014.3 hPa | 0 mm | - | 187 W/m² | - |
| 1787776995 | 31.67° C | 58% | 1014.3 hPa | 0 mm | - | 115 W/m² | - |
| 1787776694 | 32.22° C | 54% | 1014.3 hPa | 0 mm | - | 85 W/m² | - |
| 1787776393 | 32.22° C | 50% | 1014.1 hPa | 0 mm | - | 74 W/m² | - |
| 1787776090 | 32.22° C | 49% | 1014.3 hPa | 0 mm | - | 63 W/m² | - |
| 1787775786 | 32.78° C | 48% | 1014.4 hPa | 0 mm | - | 53 W/m² | - |
| 1787775485 | 32.78° C | 47% | 1014.5 hPa | 0 mm | - | 44 W/m² | - |
| 1787775184 | 32.78° C | 46% | 1014.3 hPa | 0 mm | - | 51 W/m² | - |
| 1787774883 | 32.78° C | 47% | 1014.2 hPa | 0 mm | - | 46 W/m² | - |
| 1787774583 | 32.78° C | 45% | 1014.6 hPa | 0 mm | - | 38 W/m² | - |
| 1787774283 | 33.33° C | 45% | 1014.5 hPa | 0 mm | - | 40 W/m² | - |
| 1787773982 | 33.33° C | 44% | 1014.6 hPa | 0 mm | - | 51 W/m² | - |
| 1787773681 | 33.33° C | 44% | 1014.5 hPa | 0 mm | - | 74 W/m² | - |
* Rain latest hour (hover to see other rain measurements)
** Current wind speed in m/s (hover to see current wind gust speed)